Time;durP1;ratioP1;P1;durP2;ratioP2;P2;SDS_P1;SDS_P2;PMS_P1;PMS_P2;Temp;Humidity;BMP_temperature;BMP_pressure;BME280_temperature;BME280_humidity;BME280_pressure;Samples;Min_cycle;Max_cycle;Signal;HPM_P1;HPM_P2
2021/08/28 00:01:34;;;;;;;2.35;2.15;;;;;;;-142.25;100.00;58004.16;5079347;28;20043;-58
2021/08/28 00:04:00;;;;;;;2.13;2.03;;;;;;;-142.25;100.00;58004.16;5079853;28;20071;-56
2021/08/28 00:06:25;;;;;;;2.50;2.30;;;;;;;-142.25;100.00;58004.16;5071258;28;20063;-56
2021/08/28 00:08:51;;;;;;;3.20;2.88;;;;;;;-142.25;100.00;58004.16;5061884;28;20028;-56
2021/08/28 00:11:16;;;;;;;1.52;1.38;;;;;;;-142.25;100.00;58004.16;5077837;28;20139;-57
2021/08/28 00:13:43;;;;;;;1.88;1.77;;;;;;;-142.25;100.00;58004.16;5079356;28;20040;-59
2021/08/28 00:16:10;;;;;;;2.03;1.77;;;;;;;-142.25;100.00;58004.16;5078423;28;20849;-59
2021/08/28 00:18:36;;;;;;;2.60;2.15;;;;;;;-142.25;100.00;58004.16;5077852;28;20035;-58
2021/08/28 00:21:01;;;;;;;2.03;1.92;;;;;;;-142.25;100.00;58004.16;5062697;28;20028;-58
2021/08/28 00:23:27;;;;;;;2.58;2.38;;;;;;;-142.25;100.00;58004.16;5079452;28;20063;-58
2021/08/28 00:25:53;;;;;;;3.15;2.88;;;;;;;-142.25;100.00;58004.16;5078622;28;20039;-58
2021/08/28 00:28:18;;;;;;;2.75;2.50;;;;;;;-142.25;100.00;58004.16;5078331;28;20412;-58
2021/08/28 00:30:43;;;;;;;4.15;3.78;;;;;;;-142.25;100.00;58004.16;5078287;28;20043;-58
2021/08/28 00:33:14;;;;;;;3.33;3.13;;;;;;;-142.25;100.00;58004.16;5081679;28;20381;-58
2021/08/28 00:35:41;;;;;;;3.08;2.78;;;;;;;-142.25;100.00;58004.16;5078002;28;20280;-57
2021/08/28 00:38:06;;;;;;;1.90;1.80;;;;;;;-142.25;100.00;58004.16;5079095;28;20115;-58
2021/08/28 00:40:34;;;;;;;3.17;2.97;;;;;;;-142.25;100.00;58004.16;5079170;28;20128;-58
2021/08/28 00:42:59;;;;;;;1.90;1.80;;;;;;;-142.25;100.00;58004.16;5079696;28;20043;-58
2021/08/28 00:45:30;;;;;;;1.60;1.50;;;;;;;-142.25;100.00;58004.16;5077428;28;20032;-58
2021/08/28 00:48:00;;;;;;;4.82;1.95;;;;;;;-142.25;100.00;58004.16;5079948;28;20330;-57
2021/08/28 00:50:25;;;;;;;2.05;1.95;;;;;;;-142.25;100.00;58004.16;5080935;28;20040;-58
2021/08/28 00:52:52;;;;;;;3.25;2.83;;;;;;;-142.25;100.00;58004.16;5080454;28;20028;-57
2021/08/28 00:55:17;;;;;;;5.82;3.63;;;;;;;-142.25;100.00;58004.16;5077665;28;20245;-58
2021/08/28 00:57:43;;;;;;;7.65;4.10;;;;;;;-142.25;100.00;58004.16;5078960;28;20032;-58
2021/08/28 01:00:09;;;;;;;3.25;2.95;;;;;;;-142.25;100.00;58004.16;5079010;28;20468;-58
2021/08/28 01:02:41;;;;;;;2.40;2.20;;;;;;;-142.25;100.00;58004.16;5080292;28;20434;-54
2021/08/28 01:05:12;;;;;;;2.05;1.95;;;;;;;-142.25;100.00;58004.16;5080088;28;20064;-58
2021/08/28 01:08:01;;;;;;;2.38;2.13;;;;;;;-142.25;100.00;58004.16;5079176;28;20292;-57
2021/08/28 01:10:38;;;;;;;2.65;1.83;;;;;;;-142.25;100.00;58004.16;5078601;28;20469;-57
2021/08/28 01:13:10;;;;;;;2.20;2.10;;;;;;;-142.25;100.00;58004.16;5079822;28;20036;-58
2021/08/28 01:15:38;;;;;;;2.17;2.08;;;;;;;-142.25;100.00;58004.16;5079389;28;20020;-58
2021/08/28 01:18:06;;;;;;;1.40;1.40;;;;;;;-142.25;100.00;58004.16;5080734;28;20028;-58
2021/08/28 01:20:45;;;;;;;2.17;2.00;;;;;;;-142.25;100.00;58004.16;5078788;28;20040;-57
2021/08/28 01:23:11;;;;;;;1.67;1.58;;;;;;;-142.25;100.00;58004.16;5080620;28;20047;-55
2021/08/28 01:25:37;;;;;;;2.05;1.55;;;;;;;-142.25;100.00;58004.16;5083655;28;20035;-56
2021/08/28 01:28:07;;;;;;;3.15;1.70;;;;;;;-142.25;100.00;58004.16;5082431;28;20024;-57
2021/08/28 01:30:34;;;;;;;1.33;1.23;;;;;;;-142.25;100.00;58004.16;5081932;28;20106;-55
2021/08/28 01:33:01;;;;;;;1.70;1.60;;;;;;;-142.25;100.00;58004.16;5083494;28;20061;-57
2021/08/28 01:35:28;;;;;;;1.70;1.40;;;;;;;-142.25;100.00;58004.16;5081324;28;20040;-57
2021/08/28 01:37:55;;;;;;;2.00;1.90;;;;;;;-142.25;100.00;58004.16;5082565;28;20609;-56
2021/08/28 01:40:21;;;;;;;1.90;1.30;;;;;;;-142.25;100.00;58004.16;5080856;28;20024;-57
2021/08/28 01:42:47;;;;;;;1.73;1.63;;;;;;;-142.25;100.00;58004.16;5080661;28;20142;-58
2021/08/28 01:45:15;;;;;;;2.30;2.10;;;;;;;-142.25;100.00;58004.16;5085549;28;20032;-54
2021/08/28 01:47:42;;;;;;;1.77;1.67;;;;;;;-142.25;100.00;58004.16;5082733;28;20033;-57
2021/08/28 01:50:14;;;;;;;1.95;1.85;;;;;;;-142.25;100.00;58004.16;5081971;28;20036;-56
2021/08/28 01:52:40;;;;;;;1.65;1.55;;;;;;;-142.25;100.00;58004.16;5081627;28;20446;-57
2021/08/28 01:55:06;;;;;;;1.83;1.50;;;;;;;-142.25;100.00;58004.16;5083743;28;20032;-53
2021/08/28 01:57:31;;;;;;;1.52;1.42;;;;;;;-142.25;100.00;58004.16;5072373;28;20028;-54
2021/08/28 01:59:59;;;;;;;2.15;1.40;;;;;;;-142.25;100.00;58004.16;5081407;28;20036;-53
2021/08/28 02:02:25;;;;;;;1.70;1.60;;;;;;;-142.25;100.00;58004.16;5082143;28;20048;-56
2021/08/28 02:04:50;;;;;;;4.75;1.50;;;;;;;-142.25;100.00;58004.16;5081079;28;20050;-55
2021/08/28 02:07:18;;;;;;;2.00;1.90;;;;;;;-142.25;100.00;58004.16;5080201;28;20390;-57
2021/08/28 02:09:51;;;;;;;2.00;1.30;;;;;;;-142.25;100.00;58004.16;5082570;28;20300;-54
2021/08/28 02:12:22;;;;;;;1.95;1.75;;;;;;;-142.25;100.00;58004.16;5082422;28;20046;-58
2021/08/28 02:14:58;;;;;;;2.63;2.42;;;;;;;-142.25;100.00;58004.16;5081218;28;20035;-57
2021/08/28 02:17:29;;;;;;;2.30;1.90;;;;;;;-142.25;100.00;58004.16;5082061;28;20024;-55
2021/08/28 02:19:58;;;;;;;3.25;1.98;;;;;;;-142.25;100.00;58004.16;5080908;28;20028;-57
2021/08/28 02:22:28;;;;;;;2.10;1.90;;;;;;;-142.25;100.00;58004.16;5083181;28;20034;-58
2021/08/28 02:25:02;;;;;;;3.15;2.47;;;;;;;-142.25;100.00;58004.16;5080612;28;20036;-58
2021/08/28 02:27:44;;;;;;;3.03;2.33;;;;;;;-142.25;100.00;58004.16;5082261;28;20138;-58
2021/08/28 02:30:12;;;;;;;2.35;2.15;;;;;;;-142.25;100.00;58004.16;5081495;28;20403;-57
2021/08/28 02:32:38;;;;;;;1.98;1.80;;;;;;;-142.25;100.00;58004.16;5080007;28;20070;-58
2021/08/28 02:35:07;;;;;;;3.40;2.20;;;;;;;-142.25;100.00;58004.16;5080555;28;20044;-58
2021/08/28 02:37:35;;;;;;;2.05;1.92;;;;;;;-142.25;100.00;58004.16;5079475;28;20402;-58
2021/08/28 02:40:08;;;;;;;2.55;2.35;;;;;;;-142.25;100.00;58004.16;5082205;28;20329;-57
2021/08/28 02:42:33;;;;;;;2.30;2.20;;;;;;;-142.25;100.00;58004.16;5080969;28;20230;-58
2021/08/28 02:45:01;;;;;;;1.85;1.75;;;;;;;-142.25;100.00;58004.16;5079004;28;20032;-57
2021/08/28 02:47:28;;;;;;;3.95;1.90;;;;;;;-142.25;100.00;58004.16;5080271;28;20070;-58
2021/08/28 02:49:56;;;;;;;2.65;2.38;;;;;;;-142.25;100.00;58004.16;5079338;28;20023;-56
2021/08/28 02:52:22;;;;;;;2.17;2.08;;;;;;;-142.25;100.00;58004.16;5078518;28;20107;-56
2021/08/28 02:54:50;;;;;;;2.22;2.03;;;;;;;-142.25;100.00;58004.16;5080748;28;20475;-58
2021/08/28 02:57:17;;;;;;;3.97;2.17;;;;;;;-142.25;100.00;58004.16;5077969;28;20436;-58
2021/08/28 02:59:43;;;;;;;6.55;2.53;;;;;;;-142.25;100.00;58004.16;5080632;28;20086;-58
2021/08/28 03:02:09;;;;;;;2.47;1.98;;;;;;;-142.25;100.00;58004.16;5081995;28;20395;-58
2021/08/28 03:04:36;;;;;;;2.35;1.75;;;;;;;-142.25;100.00;58004.16;5078843;28;20056;-58
2021/08/28 03:07:02;;;;;;;1.85;1.75;;;;;;;-142.25;100.00;58004.16;5079914;28;20392;-58
2021/08/28 03:09:28;;;;;;;2.35;1.50;;;;;;;-142.25;100.00;58004.16;5078519;28;20029;-58
2021/08/28 03:11:56;;;;;;;2.30;1.90;;;;;;;-142.25;100.00;58004.16;5076896;28;20043;-59
2021/08/28 03:14:24;;;;;;;1.38;1.35;;;;;;;-142.25;100.00;58004.16;5082639;28;20052;-59
2021/08/28 03:16:52;;;;;;;3.60;1.58;;;;;;;-142.25;100.00;58004.16;5078940;28;20024;-59
2021/08/28 03:19:22;;;;;;;2.15;1.55;;;;;;;-142.25;100.00;58004.16;5078713;28;20024;-58
2021/08/28 03:21:48;;;;;;;1.60;1.50;;;;;;;-142.25;100.00;58004.16;5079683;28;20094;-57
2021/08/28 03:24:16;;;;;;;1.67;1.58;;;;;;;-142.25;100.00;58004.16;5081690;28;20043;-57
2021/08/28 03:26:42;;;;;;;2.10;1.92;;;;;;;-142.25;100.00;58004.16;5077409;28;20374;-56
2021/08/28 03:29:08;;;;;;;1.98;1.65;;;;;;;-142.25;100.00;58004.16;5080220;28;20056;-58
2021/08/28 03:31:35;;;;;;;2.50;2.30;;;;;;;-142.25;100.00;58004.16;5079660;28;20025;-58
2021/08/28 03:34:01;;;;;;;1.88;1.77;;;;;;;-142.25;100.00;58004.16;5079053;28;20060;-58
2021/08/28 03:36:27;;;;;;;1.70;1.60;;;;;;;-142.25;100.00;58004.16;5077014;28;20453;-58
2021/08/28 03:38:53;;;;;;;2.00;1.42;;;;;;;-142.25;100.00;58004.16;5081890;28;20020;-58
2021/08/28 03:41:19;;;;;;;1.80;1.67;;;;;;;-142.25;100.00;58004.16;5078985;28;20109;-57
2021/08/28 03:43:46;;;;;;;5.20;2.20;;;;;;;-142.25;100.00;58004.16;5079283;28;20121;-57
2021/08/28 03:46:15;;;;;;;1.85;1.75;;;;;;;-142.25;100.00;58004.16;5079345;28;20028;-58
2021/08/28 03:48:41;;;;;;;2.38;1.98;;;;;;;-142.25;100.00;58004.16;5075957;28;20109;-57
2021/08/28 03:51:07;;;;;;;3.55;1.90;;;;;;;-142.25;100.00;58004.16;5078132;28;20074;-58
2021/08/28 03:53:33;;;;;;;4.60;2.95;;;;;;;-142.25;100.00;58004.16;5076924;28;20031;-56
2021/08/28 03:55:59;;;;;;;5.55;2.25;;;;;;;-142.25;100.00;58004.16;5078242;28;20056;-59
2021/08/28 03:58:25;;;;;;;3.50;1.77;;;;;;;-142.25;100.00;58004.16;5077964;28;20111;-59
2021/08/28 04:00:51;;;;;;;1.75;1.65;;;;;;;-142.25;100.00;58004.16;5080178;28;20032;-55
2021/08/28 04:03:17;;;;;;;2.50;2.10;;;;;;;-142.25;100.00;58004.16;5078079;28;20055;-56
2021/08/28 04:05:42;;;;;;;2.53;1.80;;;;;;;-142.25;100.00;58004.16;5080651;28;20044;-54
2021/08/28 04:08:08;;;;;;;2.20;2.03;;;;;;;-142.25;100.00;58004.16;5076073;28;20031;-57
2021/08/28 04:10:33;;;;;;;1.95;1.73;;;;;;;-142.25;100.00;58004.16;5079269;28;20056;-56
2021/08/28 04:12:58;;;;;;;5.38;2.95;;;;;;;-142.25;100.00;58004.16;5079062;28;20112;-58
2021/08/28 04:15:24;;;;;;;1.92;1.80;;;;;;;-142.25;100.00;58004.16;5078641;28;20060;-56
2021/08/28 04:17:49;;;;;;;1.85;1.73;;;;;;;-142.25;100.00;58004.16;5079512;28;20075;-55
2021/08/28 04:20:15;;;;;;;2.10;2.00;;;;;;;-142.25;100.00;58004.16;5077019;28;20032;-55
2021/08/28 04:22:41;;;;;;;1.90;1.73;;;;;;;-142.25;100.00;58004.16;5079843;28;20086;-57
2021/08/28 04:25:08;;;;;;;2.33;1.95;;;;;;;-142.25;100.00;58004.16;5077185;28;20036;-56
2021/08/28 04:27:33;;;;;;;2.88;1.90;;;;;;;-142.25;100.00;58004.16;5077484;28;20059;-55
2021/08/28 04:29:59;;;;;;;1.98;1.75;;;;;;;-142.25;100.00;58004.16;5075017;28;20064;-55
2021/08/28 04:32:24;;;;;;;4.63;1.80;;;;;;;-142.25;100.00;58004.16;5080297;28;20125;-55
2021/08/28 04:34:49;;;;;;;2.00;1.80;;;;;;;-142.25;100.00;58004.16;5077698;28;20567;-58
2021/08/28 04:37:15;;;;;;;1.83;1.73;;;;;;;-142.25;100.00;58004.16;5080022;28;20032;-58
2021/08/28 04:39:40;;;;;;;2.20;2.00;;;;;;;-142.25;100.00;58004.16;5077848;28;20024;-57
2021/08/28 04:42:06;;;;;;;2.17;1.95;;;;;;;-142.25;100.00;58004.16;5078863;28;20039;-56
2021/08/28 04:44:31;;;;;;;3.35;2.05;;;;;;;-142.25;100.00;58004.16;5079278;28;20143;-59
2021/08/28 04:46:57;;;;;;;3.75;2.15;;;;;;;-142.25;100.00;58004.16;5078959;28;20032;-55
2021/08/28 04:49:22;;;;;;;4.13;2.17;;;;;;;-142.25;100.00;58004.16;5077259;28;20059;-56
2021/08/28 04:51:47;;;;;;;2.38;2.17;;;;;;;-142.25;100.00;58004.16;5077742;28;20089;-56
2021/08/28 04:54:13;;;;;;;2.28;2.17;;;;;;;-142.25;100.00;58004.16;5080364;28;20533;-58
2021/08/28 04:56:38;;;;;;;3.70;1.75;;;;;;;-142.25;100.00;58004.16;5077224;28;20040;-56
2021/08/28 04:59:04;;;;;;;5.72;1.90;;;;;;;-142.25;100.00;58004.16;5080456;28;20032;-57
2021/08/28 05:01:29;;;;;;;2.75;1.85;;;;;;;-142.25;100.00;58004.16;5082295;28;20389;-59
2021/08/28 05:03:55;;;;;;;2.03;1.50;;;;;;;-142.25;100.00;58004.16;5082060;28;20429;-57
2021/08/28 05:06:20;;;;;;;1.70;1.60;;;;;;;-142.25;100.00;58004.16;5082205;28;20039;-58
2021/08/28 05:08:45;;;;;;;1.60;1.50;;;;;;;-142.25;100.00;58004.16;5081389;28;20036;-57
2021/08/28 05:11:12;;;;;;;1.63;1.45;;;;;;;-142.25;100.00;58004.16;5079319;28;20133;-55
2021/08/28 05:13:38;;;;;;;1.58;1.35;;;;;;;-142.25;100.00;58004.16;5084120;28;20556;-57
2021/08/28 05:16:05;;;;;;;1.70;1.60;;;;;;;-142.25;100.00;58004.16;5067022;28;20047;-57
2021/08/28 05:18:30;;;;;;;2.13;2.03;;;;;;;-142.25;100.00;58004.16;5081889;28;20351;-58
2021/08/28 05:20:56;;;;;;;2.08;1.80;;;;;;;-142.25;100.00;58004.16;5082140;28;20024;-55
2021/08/28 05:23:21;;;;;;;2.03;1.92;;;;;;;-142.25;100.00;58004.16;5081911;28;20425;-57
2021/08/28 05:25:46;;;;;;;3.38;1.65;;;;;;;-142.25;100.00;58004.16;5083123;28;20035;-57
2021/08/28 05:28:12;;;;;;;1.98;1.80;;;;;;;-142.25;100.00;58004.16;5080718;28;20031;-57
2021/08/28 05:30:37;;;;;;;2.10;1.80;;;;;;;-142.25;100.00;58004.16;5082918;28;20377;-58
2021/08/28 05:33:03;;;;;;;2.65;2.45;;;;;;;-142.25;100.00;58004.16;5081664;28;20336;-58
2021/08/28 05:35:28;;;;;;;3.03;2.83;;;;;;;-142.25;100.00;58004.16;5080490;28;20029;-59
2021/08/28 05:37:53;;;;;;;2.40;1.80;;;;;;;-142.25;100.00;58004.16;5081446;28;20064;-59
2021/08/28 05:40:20;;;;;;;3.00;2.33;;;;;;;-142.25;100.00;58004.16;5083123;28;20070;-55
2021/08/28 05:42:46;;;;;;;2.78;1.70;;;;;;;-142.25;100.00;58004.16;5082457;28;20103;-55
2021/08/28 05:45:11;;;;;;;5.05;3.25;;;;;;;-142.25;100.00;58004.16;5082333;28;20028;-56
2021/08/28 05:47:37;;;;;;;2.78;2.58;;;;;;;-142.25;100.00;58004.16;5081666;28;20117;-59
2021/08/28 05:50:04;;;;;;;3.00;2.70;;;;;;;-142.25;100.00;58004.16;5080779;28;20151;-59
2021/08/28 05:52:29;;;;;;;2.50;2.30;;;;;;;-142.25;100.00;58004.16;5078862;28;20403;-58
2021/08/28 05:54:55;;;;;;;2.63;1.95;;;;;;;-142.25;100.00;58004.16;5080120;28;20032;-58
2021/08/28 05:57:20;;;;;;;4.82;3.10;;;;;;;-142.25;100.00;58004.16;5079054;28;20032;-56
2021/08/28 05:59:46;;;;;;;1.90;1.77;;;;;;;-142.25;100.00;58004.16;5077811;28;20032;-58
2021/08/28 06:02:11;;;;;;;2.92;2.45;;;;;;;-142.25;100.00;58004.16;5081172;28;20032;-57
2021/08/28 06:04:37;;;;;;;4.22;2.70;;;;;;;-142.25;100.00;58004.16;5063267;28;20054;-57
2021/08/28 06:07:03;;;;;;;4.80;2.60;;;;;;;-142.25;100.00;58004.16;5080298;28;20059;-56
2021/08/28 06:09:28;;;;;;;3.45;3.13;;;;;;;-142.25;100.00;58004.16;5080257;28;20086;-57
2021/08/28 06:11:55;;;;;;;2.60;2.40;;;;;;;-142.25;100.00;58004.16;5078982;28;20028;-54
2021/08/28 06:14:20;;;;;;;2.20;2.10;;;;;;;-142.25;100.00;58004.16;5081761;28;20058;-55
2021/08/28 06:16:46;;;;;;;2.80;2.33;;;;;;;-142.25;100.00;58004.16;5063307;28;20035;-57
2021/08/28 06:19:11;;;;;;;2.42;1.92;;;;;;;-142.25;100.00;58004.16;5081857;28;20039;-59
2021/08/28 06:21:37;;;;;;;4.57;1.92;;;;;;;-142.25;100.00;58004.16;5081799;28;20043;-55
2021/08/28 06:24:03;;;;;;;3.35;2.47;;;;;;;-142.25;100.00;58004.16;5081905;28;20082;-57
2021/08/28 06:26:28;;;;;;;4.85;2.58;;;;;;;-142.25;100.00;58004.16;5080646;28;20029;-55
2021/08/28 06:28:54;;;;;;;2.50;2.30;;;;;;;-142.25;100.00;58004.16;5081168;28;20043;-59
2021/08/28 06:31:19;;;;;;;2.45;2.20;;;;;;;-142.25;100.00;58004.16;5080986;28;20027;-58
2021/08/28 06:33:45;;;;;;;2.20;2.00;;;;;;;-142.25;100.00;58004.16;5078987;28;20075;-57
2021/08/28 06:36:10;;;;;;;2.55;2.35;;;;;;;-142.25;100.00;58004.16;5079897;28;20028;-58
2021/08/28 06:38:36;;;;;;;2.53;2.40;;;;;;;-142.25;100.00;58004.16;5079655;28;20033;-58
2021/08/28 06:41:04;;;;;;;2.90;1.85;;;;;;;-142.25;100.00;58004.16;5079128;28;20131;-57
2021/08/28 06:43:31;;;;;;;1.90;1.80;;;;;;;-142.25;100.00;58004.16;5078286;28;20031;-59
2021/08/28 06:45:56;;;;;;;2.20;2.00;;;;;;;-142.25;100.00;58004.16;5079009;28;20020;-58
2021/08/28 06:48:22;;;;;;;2.10;2.00;;;;;;;-142.25;100.00;58004.16;5080449;28;20059;-56
2021/08/28 06:50:47;;;;;;;4.53;2.13;;;;;;;-142.25;100.00;58004.16;5081707;28;20016;-58
2021/08/28 06:53:16;;;;;;;2.20;2.10;;;;;;;-142.25;100.00;58004.16;5080884;28;20032;-57
2021/08/28 06:55:42;;;;;;;2.13;1.80;;;;;;;-142.25;100.00;58004.16;5079474;28;20035;-57
2021/08/28 06:58:07;;;;;;;3.53;3.13;;;;;;;-142.25;100.00;58004.16;5081126;28;20032;-57
2021/08/28 07:00:33;;;;;;;3.38;3.03;;;;;;;-142.25;100.00;58004.16;5079206;28;20032;-58
2021/08/28 07:02:58;;;;;;;2.42;2.22;;;;;;;-142.25;100.00;58004.16;5080229;28;20039;-57
2021/08/28 07:05:24;;;;;;;16.52;3.38;;;;;;;-142.25;100.00;58004.16;5065826;28;20432;-56
2021/08/28 07:07:49;;;;;;;3.97;3.30;;;;;;;-142.25;100.00;58004.16;5080448;28;20029;-57
2021/08/28 07:10:16;;;;;;;2.42;2.22;;;;;;;-142.25;100.00;58004.16;5079687;28;20021;-57
2021/08/28 07:12:42;;;;;;;2.20;2.08;;;;;;;-142.25;100.00;58004.16;5063915;28;20081;-58
2021/08/28 07:15:08;;;;;;;2.47;2.28;;;;;;;-142.25;100.00;58004.16;5078449;28;20063;-56
2021/08/28 07:17:34;;;;;;;3.10;2.40;;;;;;;-142.25;100.00;58004.16;5081681;28;20039;-56
2021/08/28 07:19:59;;;;;;;2.85;2.63;;;;;;;-142.25;100.00;58004.16;5079041;28;20028;-58
2021/08/28 07:22:25;;;;;;;2.78;2.50;;;;;;;-142.25;100.00;58004.16;5077398;28;20023;-56
2021/08/28 07:24:50;;;;;;;2.88;2.65;;;;;;;-142.25;100.00;58004.16;5077844;28;20028;-58
2021/08/28 07:27:17;;;;;;;2.90;2.72;;;;;;;-142.25;100.00;58004.16;5080058;28;20038;-58
2021/08/28 07:29:42;;;;;;;3.75;3.00;;;;;;;-142.25;100.00;58004.16;5068724;28;20056;-55
2021/08/28 07:32:09;;;;;;;2.58;2.42;;;;;;;-142.25;100.00;58004.16;5063879;28;20056;-55
2021/08/28 07:34:38;;;;;;;2.60;2.40;;;;;;;-142.25;100.00;58004.16;5080995;28;20071;-57
2021/08/28 07:37:05;;;;;;;3.85;2.70;;;;;;;-142.25;100.00;58004.16;5079626;28;20024;-58
2021/08/28 07:39:30;;;;;;;2.67;2.47;;;;;;;-142.25;100.00;58004.16;5079975;28;20016;-58
2021/08/28 07:41:55;;;;;;;3.03;2.85;;;;;;;-142.25;100.00;58004.16;5079366;28;20030;-57
2021/08/28 07:44:21;;;;;;;2.35;2.25;;;;;;;-142.25;100.00;58004.16;5081487;28;20024;-56
2021/08/28 07:46:48;;;;;;;3.20;3.00;;;;;;;-142.25;100.00;58004.16;5068397;28;20118;-57
2021/08/28 07:49:15;;;;;;;5.93;3.00;;;;;;;-142.25;100.00;58004.16;5080636;28;20115;-56
2021/08/28 07:51:40;;;;;;;3.10;2.78;;;;;;;-142.25;100.00;58004.16;5080846;28;20027;-56
2021/08/28 07:54:06;;;;;;;3.90;2.97;;;;;;;-142.25;100.00;58004.16;5061780;28;20035;-58
2021/08/28 07:56:31;;;;;;;2.20;2.10;;;;;;;-142.25;100.00;58004.16;5078021;28;20024;-59
2021/08/28 07:58:57;;;;;;;3.33;3.03;;;;;;;-142.25;100.00;58004.16;5081930;28;20032;-60
2021/08/28 08:01:22;;;;;;;4.60;3.35;;;;;;;-142.25;100.00;58004.16;5077359;28;20373;-57
2021/08/28 08:03:47;;;;;;;6.43;3.50;;;;;;;-142.25;100.00;58004.16;5078413;28;20035;-58
2021/08/28 08:06:13;;;;;;;5.05;3.28;;;;;;;-142.25;100.00;58004.16;5078809;28;20418;-58
2021/08/28 08:08:38;;;;;;;6.43;3.60;;;;;;;-142.25;100.00;58004.16;5078750;28;20032;-59
2021/08/28 08:11:04;;;;;;;4.47;3.85;;;;;;;-142.25;100.00;58004.16;5077284;28;20032;-59
2021/08/28 08:13:29;;;;;;;6.10;4.10;;;;;;;-142.25;100.00;58004.16;5077448;28;20054;-58
2021/08/28 08:15:54;;;;;;;3.85;3.50;;;;;;;-142.25;100.00;58004.16;5077817;28;20380;-57
2021/08/28 08:18:20;;;;;;;4.07;3.60;;;;;;;-142.25;100.00;58004.16;5080825;28;20069;-57
2021/08/28 08:20:45;;;;;;;4.45;3.58;;;;;;;-142.25;100.00;58004.16;5078353;28;20384;-60
2021/08/28 08:23:11;;;;;;;3.17;2.88;;;;;;;-142.25;100.00;58004.16;5078824;28;20072;-57
2021/08/28 08:25:37;;;;;;;3.58;3.17;;;;;;;-142.25;100.00;58004.16;5079397;28;20032;-57
2021/08/28 08:28:02;;;;;;;5.45;3.33;;;;;;;-142.25;100.00;58004.16;5077981;28;20024;-54
2021/08/28 08:30:28;;;;;;;3.55;2.42;;;;;;;-142.25;100.00;58004.16;5060721;28;20025;-57
2021/08/28 08:32:54;;;;;;;4.45;2.50;;;;;;;-142.25;100.00;58004.16;5078813;28;20412;-58
2021/08/28 08:35:20;;;;;;;5.70;3.40;;;;;;;-142.25;100.00;58004.16;5076618;28;20081;-56
2021/08/28 08:37:45;;;;;;;3.33;3.08;;;;;;;-142.25;100.00;58004.16;5077524;28;20373;-56
2021/08/28 08:40:11;;;;;;;3.28;2.97;;;;;;;-142.25;100.00;58004.16;5078566;28;20044;-58
2021/08/28 08:42:39;;;;;;;4.25;2.47;;;;;;;-142.25;100.00;58004.16;5078928;28;20030;-56
2021/08/28 08:45:05;;;;;;;2.42;2.08;;;;;;;-142.25;100.00;58004.16;5078416;28;20352;-59
2021/08/28 08:47:34;;;;;;;2.00;1.90;;;;;;;-142.25;100.00;58004.16;5078000;28;20028;-58
2021/08/28 08:50:01;;;;;;;2.20;1.98;;;;;;;-142.25;100.00;58004.16;5081621;28;20042;-58
2021/08/28 08:52:30;;;;;;;2.30;1.90;;;;;;;-142.25;100.00;58004.16;5079637;28;20032;-56
2021/08/28 08:54:56;;;;;;;3.15;1.73;;;;;;;-142.25;100.00;58004.16;5080671;28;20106;-58
2021/08/28 08:57:22;;;;;;;2.22;2.03;;;;;;;-142.25;100.00;58004.16;5077533;28;20024;-57
2021/08/28 08:59:47;;;;;;;2.88;2.47;;;;;;;-142.25;100.00;58004.16;5078907;28;20066;-57
2021/08/28 09:02:13;;;;;;;4.50;2.47;;;;;;;-142.25;100.00;58004.16;5081120;28;20032;-57
2021/08/28 09:04:38;;;;;;;2.10;2.00;;;;;;;-142.25;100.00;58004.16;5080383;28;20039;-58
2021/08/28 09:07:06;;;;;;;5.05;2.50;;;;;;;-142.25;100.00;58004.16;5080903;28;20028;-58
2021/08/28 09:09:31;;;;;;;2.05;1.90;;;;;;;-142.25;100.00;58004.16;5061221;28;20024;-56
2021/08/28 09:12:05;;;;;;;2.53;2.33;;;;;;;-142.25;100.00;58004.16;5079972;28;20113;-58
2021/08/28 09:14:31;;;;;;;8.57;3.97;;;;;;;-142.25;100.00;58004.16;5079927;28;20016;-52
2021/08/28 09:16:57;;;;;;;3.47;2.20;;;;;;;-142.25;100.00;58004.16;5079092;28;20095;-53
2021/08/28 09:19:37;;;;;;;3.63;2.00;;;;;;;-142.25;100.00;58004.16;5078843;28;20126;-60
2021/08/28 09:22:06;;;;;;;2.08;1.90;;;;;;;-142.25;100.00;58004.16;5078011;28;20036;-58
2021/08/28 09:24:42;;;;;;;5.75;1.80;;;;;;;-142.25;100.00;58004.16;5065085;28;20311;-60
2021/08/28 09:27:07;;;;;;;1.85;1.75;;;;;;;-142.25;100.00;58004.16;5080047;28;20028;-59
2021/08/28 09:29:33;;;;;;;5.55;1.90;;;;;;;-142.25;100.00;58004.16;5079199;28;20625;-57
2021/08/28 09:31:58;;;;;;;2.80;1.98;;;;;;;-142.25;100.00;58004.16;5063817;28;20381;-59
2021/08/28 09:34:29;;;;;;;2.15;1.95;;;;;;;-142.25;100.00;58004.16;5078624;28;20060;-60
2021/08/28 09:37:04;;;;;;;2.95;2.13;;;;;;;-142.25;100.00;58004.16;5079848;28;20673;-58
2021/08/28 09:39:41;;;;;;;3.03;2.83;;;;;;;-142.25;100.00;58004.16;5078647;28;20435;-58
2021/08/28 09:42:07;;;;;;;2.97;2.35;;;;;;;-142.25;100.00;58004.16;5077758;28;20609;-56
2021/08/28 09:44:42;;;;;;;3.10;2.35;;;;;;;-142.25;100.00;58004.16;5078363;28;20027;-58
2021/08/28 09:47:12;;;;;;;;;;;;;;;-142.25;100.00;58004.16;5082475;28;20032;-66
2021/08/28 09:49:40;;;;;;;3.65;2.25;;;;;;;-142.25;100.00;58004.16;5080043;28;19950;-66
2021/08/28 09:52:09;;;;;;;2.33;2.15;;;;;;;-142.25;100.00;58004.16;5080042;28;20526;-67
2021/08/28 09:54:37;;;;;;;2.90;2.42;;;;;;;-142.25;100.00;58004.16;5081676;28;20338;-67
2021/08/28 09:57:04;;;;;;;2.20;2.00;;;;;;;-142.25;100.00;58004.16;5082043;28;20031;-66
2021/08/28 09:59:29;;;;;;;2.40;2.30;;;;;;;-142.25;100.00;58004.16;5084505;28;20034;-67
2021/08/28 10:01:55;;;;;;;2.92;2.33;;;;;;;-142.25;100.00;58004.16;5083721;28;20024;-66
2021/08/28 10:04:20;;;;;;;5.60;2.05;;;;;;;-142.25;100.00;58004.16;5081093;28;20047;-66
2021/08/28 10:06:47;;;;;;;3.13;2.20;;;;;;;-142.25;100.00;58004.16;5081722;28;20291;-58
2021/08/28 10:09:17;;;;;;;2.13;1.92;;;;;;;-142.25;100.00;58004.16;5081156;28;20328;-60
2021/08/28 10:11:47;;;;;;;1.50;1.50;;;;;;;-142.25;100.00;58004.16;5080848;28;20032;-59
2021/08/28 10:14:15;;;;;;;2.00;1.90;;;;;;;-142.25;100.00;58004.16;5081680;28;20443;-59
2021/08/28 10:16:43;;;;;;;2.38;2.17;;;;;;;-142.25;100.00;58004.16;5083455;28;20359;-58
2021/08/28 10:19:13;;;;;;;3.38;2.58;;;;;;;-142.25;100.00;58004.16;5080390;28;20373;-58
2021/08/28 10:21:38;;;;;;;3.05;2.38;;;;;;;-142.25;100.00;58004.16;5083434;28;20034;-59
2021/08/28 10:24:04;;;;;;;4.50;3.85;;;;;;;-142.25;100.00;58004.16;5076229;28;20028;-57
2021/08/28 10:26:30;;;;;;;4.50;3.55;;;;;;;-142.25;100.00;58004.16;5065960;28;20137;-60
2021/08/28 10:29:03;;;;;;;3.40;2.83;;;;;;;-142.25;100.00;58004.16;5068211;28;20029;-58
2021/08/28 10:31:29;;;;;;;4.30;2.55;;;;;;;-142.25;100.00;58004.16;5082770;28;20040;-59
2021/08/28 10:33:54;;;;;;;4.30;3.25;;;;;;;-142.25;100.00;58004.16;5081186;28;20354;-58
2021/08/28 10:36:20;;;;;;;4.03;2.90;;;;;;;-142.25;100.00;58004.16;5080823;28;20036;-59
2021/08/28 10:38:48;;;;;;;3.42;3.13;;;;;;;-142.25;100.00;58004.16;5079959;28;20027;-58
2021/08/28 10:41:15;;;;;;;4.53;3.20;;;;;;;-142.25;100.00;58004.16;5080602;28;20059;-59
2021/08/28 10:43:42;;;;;;;3.92;2.92;;;;;;;-142.25;100.00;58004.16;5079252;28;20031;-59
2021/08/28 10:46:26;;;;;;;8.43;3.97;;;;;;;-142.25;100.00;58004.16;5081271;28;20020;-60
2021/08/28 10:48:53;;;;;;;5.70;3.47;;;;;;;-142.25;100.00;58004.16;5078570;28;20240;-59
2021/08/28 10:51:24;;;;;;;15.30;7.32;;;;;;;-142.25;100.00;58004.16;5080140;28;20067;-58
2021/08/28 10:53:54;;;;;;;15.30;7.53;;;;;;;-142.25;100.00;58004.16;5080149;28;20074;-58
2021/08/28 10:56:34;;;;;;;10.63;5.30;;;;;;;-142.25;100.00;58004.16;5080552;28;20021;-59
2021/08/28 10:59:21;;;;;;;17.65;9.57;;;;;;;-142.25;100.00;58004.16;5080756;28;20138;-57
2021/08/28 11:02:00;;;;;;;25.80;12.90;;;;;;;-142.25;100.00;58004.16;5071320;28;20507;-58
2021/08/28 11:04:40;;;;;;;19.92;8.75;;;;;;;-142.25;100.00;58004.16;5077277;28;20035;-57
2021/08/28 11:07:21;;;;;;;14.45;7.07;;;;;;;-142.25;100.00;58004.16;5080399;28;20039;-56
2021/08/28 11:10:10;;;;;;;7.20;4.35;;;;;;;-142.25;100.00;58004.16;5078239;28;20800;-58